createdAt,value
2023-04-01T00:01:08.994Z,11.44
2023-04-01T00:03:38.714Z,11.43
2023-04-01T00:06:07.285Z,11.47
2023-04-01T00:08:35.578Z,11.43
2023-04-01T00:11:03.706Z,11.41
2023-04-01T00:13:31.961Z,11.39
2023-04-01T00:16:00.524Z,11.36
2023-04-01T00:18:28.796Z,11.41
2023-04-01T00:20:58.270Z,11.39
2023-04-01T00:23:26.580Z,11.37
2023-04-01T00:25:54.861Z,11.36
2023-04-01T00:28:23.215Z,11.36
2023-04-01T00:30:51.498Z,11.36
2023-04-01T00:33:19.686Z,11.35
2023-04-01T00:35:48.605Z,11.33
2023-04-01T00:38:19.913Z,11.33
2023-04-01T00:40:48.559Z,11.36
2023-04-01T00:43:20.680Z,11.34
2023-04-01T00:45:50.422Z,11.32
2023-04-01T00:48:21.628Z,11.29
2023-04-01T00:50:54.224Z,11.28
2023-04-01T00:53:25.582Z,11.29
2023-04-01T00:55:59.214Z,11.28
2023-04-01T00:58:29.606Z,11.29
2023-04-01T01:00:58.916Z,11.29
2023-04-01T01:03:27.351Z,11.26
2023-04-01T01:06:12.505Z,11.20
2023-04-01T01:08:55.105Z,11.23
2023-04-01T01:11:37.006Z,11.19
2023-04-01T01:14:22.859Z,11.21
2023-04-01T01:16:57.673Z,11.17
2023-04-01T01:19:45.135Z,11.13
2023-04-01T01:22:41.634Z,11.12
2023-04-01T01:25:28.758Z,11.19
2023-04-01T01:28:04.952Z,11.15
2023-04-01T01:30:49.553Z,11.16
2023-04-01T01:33:37.353Z,11.12
2023-04-01T01:36:11.639Z,11.14
2023-04-01T01:38:40.856Z,11.09
2023-04-01T01:41:11.063Z,11.12
2023-04-01T01:43:43.839Z,11.15
2023-04-01T01:46:14.639Z,11.15
2023-04-01T01:48:45.795Z,11.15
2023-04-01T01:51:15.837Z,11.15
2023-04-01T01:53:46.517Z,11.13
2023-04-01T01:56:15.123Z,11.11
2023-04-01T01:58:46.977Z,11.13
2023-04-01T02:01:19.117Z,11.13
2023-04-01T02:03:47.898Z,11.12
2023-04-01T02:06:21.103Z,11.14
2023-04-01T02:08:54.455Z,11.15
2023-04-01T02:11:28.802Z,11.15
2023-04-01T02:14:04.567Z,11.14
2023-04-01T02:16:37.567Z,11.17
2023-04-01T02:19:08.465Z,11.14
2023-04-01T02:21:39.650Z,11.13
2023-04-01T02:24:12.613Z,11.09
2023-04-01T02:26:42.106Z,11.10
2023-04-01T02:29:13.894Z,11.09
2023-04-01T02:31:43.900Z,11.08
2023-04-01T02:34:12.132Z,11.08
2023-04-01T02:36:41.739Z,11.09
2023-04-01T02:39:10.358Z,11.10
2023-04-01T02:41:41.910Z,11.10
2023-04-01T02:44:10.276Z,11.06
2023-04-01T02:46:38.970Z,11.07
2023-04-01T02:49:07.636Z,11.08
2023-04-01T02:51:36.621Z,11.09
2023-04-01T02:54:06.557Z,11.07
2023-04-01T02:56:35.110Z,11.03
2023-04-01T02:59:03.692Z,11.06
2023-04-01T03:01:31.755Z,11.05
2023-04-01T03:03:59.996Z,11.05
2023-04-01T03:06:28.154Z,11.09
2023-04-01T03:08:56.384Z,11.06
2023-04-01T03:11:27.283Z,11.08
2023-04-01T03:13:55.426Z,11.09
2023-04-01T03:16:23.567Z,11.08
2023-04-01T03:18:53.648Z,11.10
2023-04-01T03:21:23.969Z,11.09
2023-04-01T03:23:52.519Z,11.10
2023-04-01T03:26:22.611Z,11.11
2023-04-01T03:28:52.368Z,11.12
2023-04-01T03:31:22.502Z,11.11
2023-04-01T03:33:51.994Z,11.11
2023-04-01T03:36:20.358Z,11.11
2023-04-01T03:38:48.825Z,11.09
2023-04-01T03:41:19.100Z,11.10
2023-04-01T03:43:47.362Z,11.09
2023-04-01T03:46:21.489Z,11.10
2023-04-01T03:48:50.121Z,11.09
2023-04-01T03:51:18.304Z,11.09
2023-04-01T03:53:46.554Z,11.05
2023-04-01T03:56:14.749Z,11.05
2023-04-01T03:58:42.956Z,11.04
2023-04-01T04:01:18.994Z,11.02
2023-04-01T04:03:50.560Z,11.01
2023-04-01T04:06:19.635Z,10.97
2023-04-01T04:08:48.294Z,10.95
2023-04-01T04:11:16.621Z,10.95
2023-04-01T04:13:45.406Z,10.96
2023-04-01T04:16:13.742Z,10.94
2023-04-01T04:18:44.942Z,10.94
2023-04-01T04:21:16.938Z,10.94
2023-04-01T04:23:45.666Z,10.94
2023-04-01T04:26:15.218Z,10.92
2023-04-01T04:28:43.469Z,10.94
2023-04-01T04:31:11.732Z,10.91
2023-04-01T04:33:39.875Z,10.90
2023-04-01T04:36:08.796Z,10.88
2023-04-01T04:38:38.517Z,10.90
2023-04-01T04:41:11.404Z,10.93
2023-04-01T04:43:39.907Z,10.93
2023-04-01T04:46:08.830Z,10.92
2023-04-01T04:48:37.575Z,10.88
2023-04-01T04:51:06.094Z,10.86
2023-04-01T04:53:34.320Z,10.90
2023-04-01T04:56:03.842Z,10.90
2023-04-01T04:58:32.293Z,10.88
2023-04-01T05:01:00.499Z,10.88
2023-04-01T05:03:28.794Z,10.88
2023-04-01T05:05:57.163Z,10.89
2023-04-01T05:08:25.320Z,10.88
2023-04-01T05:10:53.733Z,10.87
2023-04-01T05:13:23.333Z,10.85
2023-04-01T05:15:51.531Z,10.88
2023-04-01T05:18:19.700Z,10.87
2023-04-01T05:20:51.805Z,10.91
2023-04-01T05:23:22.106Z,10.90
2023-04-01T05:25:50.934Z,10.90
2023-04-01T05:28:19.394Z,10.90
2023-04-01T05:30:49.134Z,10.88
2023-04-01T05:33:17.282Z,10.91
2023-04-01T05:35:45.551Z,10.91
2023-04-01T05:38:13.759Z,10.91
2023-04-01T05:40:42.692Z,10.93
2023-04-01T05:43:10.908Z,10.93
2023-04-01T05:45:39.143Z,10.97
2023-04-01T05:48:08.630Z,11.00
2023-04-01T05:50:36.879Z,10.97
2023-04-01T05:53:04.998Z,10.99
2023-04-01T05:55:33.367Z,10.96
2023-04-01T05:58:01.905Z,10.99
2023-04-01T06:00:32.326Z,10.99
2023-04-01T06:03:01.389Z,10.99
2023-04-01T06:05:33.648Z,11.00
2023-04-01T06:08:07.436Z,11.00
2023-04-01T06:10:46.630Z,10.98
2023-04-01T06:13:23.572Z,11.00
2023-04-01T06:15:59.807Z,10.97
2023-04-01T06:18:57.794Z,10.97
2023-04-01T06:22:05.935Z,10.99
2023-04-01T06:25:01.725Z,10.98
2023-04-01T06:27:45.630Z,10.96
2023-04-01T06:30:33.132Z,10.92
2023-04-01T06:33:22.352Z,10.90
2023-04-01T06:36:11.392Z,10.80
2023-04-01T06:39:09.713Z,10.72
2023-04-01T06:42:20.716Z,10.64
2023-04-01T06:45:03.956Z,10.65
2023-04-01T06:47:48.595Z,10.64
2023-04-01T06:50:27.184Z,10.63
2023-04-01T06:53:03.893Z,10.63
2023-04-01T06:55:43.657Z,10.63
2023-04-01T06:58:19.068Z,10.62
2023-04-01T07:00:52.916Z,10.62
2023-04-01T07:03:26.438Z,10.63
2023-04-01T07:05:56.279Z,10.63
2023-04-01T07:08:30.367Z,10.64
2023-04-01T07:11:05.705Z,10.67
2023-04-01T07:13:38.466Z,10.70
2023-04-01T07:16:15.121Z,10.70
2023-04-01T07:18:48.251Z,10.71
2023-04-01T07:21:26.027Z,10.73
2023-04-01T07:23:57.490Z,10.73
2023-04-01T07:26:27.923Z,10.71
2023-04-01T07:28:56.919Z,10.71
2023-04-01T07:31:42.003Z,10.72
2023-04-01T07:34:15.235Z,10.70
2023-04-01T07:36:47.858Z,10.68
2023-04-01T07:39:29.824Z,10.69
2023-04-01T07:42:08.132Z,10.69
2023-04-01T07:44:44.569Z,10.63
2023-04-01T07:47:28.448Z,10.60
2023-04-01T07:50:11.509Z,10.59
2023-04-01T07:52:52.788Z,10.58
2023-04-01T07:55:28.946Z,10.58
2023-04-01T07:58:09.922Z,10.58
2023-04-01T08:00:48.066Z,10.57
2023-04-01T08:03:45.307Z,10.61
2023-04-01T08:06:21.274Z,10.65
2023-04-01T08:09:03.176Z,10.64
2023-04-01T08:11:43.858Z,10.68
2023-04-01T08:14:22.870Z,10.67
2023-04-01T08:17:01.824Z,10.68
2023-04-01T08:19:38.337Z,10.70
2023-04-01T08:22:13.510Z,10.73
2023-04-01T08:24:48.164Z,10.72
2023-04-01T08:27:23.945Z,10.73
2023-04-01T08:29:59.708Z,10.79
2023-04-01T08:32:33.571Z,10.82
2023-04-01T08:35:12.197Z,10.82
2023-04-01T08:37:44.682Z,10.88
2023-04-01T08:40:40.127Z,10.92
2023-04-01T08:43:14.480Z,10.98
2023-04-01T08:46:09.577Z,11.05
2023-04-01T08:49:06.824Z,11.09
2023-04-01T08:52:20.841Z,11.12
2023-04-01T08:55:21.889Z,11.15
2023-04-01T08:58:02.532Z,11.18
2023-04-01T09:00:34.656Z,11.19
2023-04-01T09:03:38.181Z,11.21
2023-04-01T09:06:35.522Z,11.21
2023-04-01T09:09:27.279Z,11.20
2023-04-01T09:12:08.698Z,11.24
2023-04-01T09:14:57.954Z,11.29
2023-04-01T09:17:56.055Z,11.27
2023-04-01T09:20:41.796Z,11.29
2023-04-01T09:23:31.212Z,11.34
2023-04-01T09:26:22.034Z,11.35
2023-04-01T09:29:02.079Z,11.37
2023-04-01T09:31:57.001Z,11.39
2023-04-01T09:34:33.606Z,11.41
2023-04-01T09:37:19.349Z,11.48
2023-04-01T09:40:04.329Z,11.52
2023-04-01T09:42:45.551Z,11.54
2023-04-01T09:45:31.724Z,11.52
2023-04-01T09:48:13.424Z,11.52
2023-04-01T09:50:52.036Z,11.55
2023-04-01T09:53:45.351Z,11.57
2023-04-01T09:57:08.399Z,11.61
2023-04-01T10:00:13.396Z,11.63
2023-04-01T10:03:28.475Z,11.67
2023-04-01T10:06:28.039Z,11.66
2023-04-01T10:09:41.350Z,11.55
2023-04-01T10:12:48.895Z,11.46
2023-04-01T10:15:52.034Z,11.37
2023-04-01T10:18:58.205Z,11.29
2023-04-01T10:21:59.566Z,11.30
2023-04-01T10:24:58.262Z,11.28
2023-04-01T10:27:58.880Z,11.38
2023-04-01T10:30:56.551Z,11.51
2023-04-01T10:34:00.307Z,11.60
2023-04-01T10:36:54.693Z,11.60
2023-04-01T10:39:57.021Z,11.59
2023-04-01T10:43:04.983Z,11.60
2023-04-01T10:46:03.276Z,11.71
2023-04-01T10:49:07.094Z,11.86
2023-04-01T10:52:13.156Z,11.97
2023-04-01T10:55:02.253Z,12.01
2023-04-01T10:58:11.615Z,12.09
2023-04-01T11:01:08.124Z,12.16
2023-04-01T11:04:03.431Z,12.23
2023-04-01T11:06:59.874Z,12.32
2023-04-01T11:10:28.208Z,12.34
2023-04-01T11:13:37.743Z,12.30
2023-04-01T11:16:52.938Z,12.31
2023-04-01T11:19:50.965Z,12.34
2023-04-01T11:22:46.835Z,12.39
2023-04-01T11:25:32.047Z,12.38
2023-04-01T11:28:23.433Z,12.39
2023-04-01T11:31:12.274Z,12.60
2023-04-01T11:33:52.154Z,12.85
2023-04-01T11:36:35.037Z,12.87
2023-04-01T11:39:21.847Z,12.80
2023-04-01T11:42:00.473Z,12.74
2023-04-01T11:44:31.015Z,12.70
2023-04-01T11:47:21.539Z,12.66
2023-04-01T11:50:02.290Z,12.64
2023-04-01T11:52:49.632Z,12.63
2023-04-01T11:55:27.600Z,12.62
2023-04-01T11:58:18.714Z,12.69
2023-04-01T12:01:11.075Z,12.85
2023-04-01T12:04:03.610Z,12.93
2023-04-01T12:06:41.352Z,13.00
2023-04-01T12:09:16.150Z,13.05
2023-04-01T12:11:53.145Z,13.17
2023-04-01T12:14:33.167Z,13.34
2023-04-01T12:17:09.666Z,13.42
2023-04-01T12:19:44.561Z,13.46
2023-04-01T12:22:27.420Z,13.71
2023-04-01T12:25:07.595Z,13.87
2023-04-01T12:27:44.245Z,13.95
2023-04-01T12:30:45.048Z,13.91
2023-04-01T12:33:36.584Z,13.81
2023-04-01T12:36:18.183Z,13.74
2023-04-01T12:39:02.809Z,13.73
2023-04-01T12:41:41.676Z,13.70
2023-04-01T12:44:35.177Z,13.63
2023-04-01T12:47:16.678Z,13.52
2023-04-01T12:50:22.346Z,13.44
2023-04-01T12:53:08.027Z,13.52
2023-04-01T12:55:42.708Z,13.66
2023-04-01T12:58:41.248Z,13.70
2023-04-01T13:01:30.032Z,13.80
2023-04-01T13:04:28.175Z,13.84
2023-04-01T13:07:22.350Z,13.81
2023-04-01T13:10:00.988Z,13.72
2023-04-01T13:12:42.865Z,13.61
2023-04-01T13:15:28.875Z,13.52
2023-04-01T13:18:05.924Z,13.48
2023-04-01T13:20:45.809Z,13.45
2023-04-01T13:23:27.633Z,13.43
2023-04-01T13:26:14.388Z,13.43
2023-04-01T13:28:52.627Z,13.43
2023-04-01T13:31:37.465Z,13.47
2023-04-01T13:34:18.389Z,13.48
2023-04-01T13:36:57.904Z,13.47
2023-04-01T13:39:44.071Z,13.44
2023-04-01T13:42:21.599Z,13.43
2023-04-01T13:44:57.865Z,13.39
2023-04-01T13:47:57.361Z,13.34
2023-04-01T13:50:41.528Z,13.32
2023-04-01T13:53:54.177Z,13.15
2023-04-01T13:56:36.065Z,12.99
2023-04-01T13:59:33.237Z,12.85
2023-04-01T14:02:16.750Z,12.78
2023-04-01T14:04:58.757Z,12.78
2023-04-01T14:07:49.519Z,12.77
2023-04-01T14:10:27.737Z,12.81
2023-04-01T14:13:02.767Z,12.84
2023-04-01T14:16:04.304Z,12.86
2023-04-01T14:19:03.550Z,12.93
2023-04-01T14:21:38.058Z,12.94
2023-04-01T14:24:22.752Z,12.94
2023-04-01T14:27:29.268Z,12.88
2023-04-01T14:30:14.423Z,12.76
2023-04-01T14:32:50.854Z,12.78
2023-04-01T14:35:32.670Z,12.73
2023-04-01T14:38:10.806Z,12.53
2023-04-01T14:40:56.411Z,12.37
2023-04-01T14:43:50.569Z,12.27
2023-04-01T14:47:06.445Z,12.21
2023-04-01T14:49:37.644Z,12.11
2023-04-01T14:52:14.027Z,11.92
2023-04-01T14:54:46.167Z,11.96
2023-04-01T14:57:17.643Z,12.05
2023-04-01T14:59:50.624Z,12.08
2023-04-01T15:02:44.776Z,12.06
2023-04-01T15:05:22.515Z,12.06
2023-04-01T15:08:03.084Z,12.13
2023-04-01T15:11:06.600Z,12.12
2023-04-01T15:13:53.604Z,12.04
2023-04-01T15:16:28.280Z,12.00
2023-04-01T15:19:07.768Z,12.02
2023-04-01T15:21:56.063Z,12.05
2023-04-01T15:24:28.031Z,12.14
2023-04-01T15:27:19.070Z,12.14
2023-04-01T15:30:02.168Z,12.17
2023-04-01T15:32:43.147Z,12.19
2023-04-01T15:35:23.591Z,12.21
2023-04-01T15:37:58.641Z,12.28
2023-04-01T15:40:33.458Z,12.40
2023-04-01T15:43:13.477Z,12.43
2023-04-01T15:45:51.709Z,12.43
2023-04-01T15:48:34.187Z,12.35
2023-04-01T15:51:13.265Z,12.22
2023-04-01T15:54:07.438Z,12.09
2023-04-01T15:57:03.268Z,12.01
2023-04-01T15:59:54.148Z,11.97
2023-04-01T16:02:27.369Z,11.92
2023-04-01T16:05:00.934Z,11.85
2023-04-01T16:07:45.807Z,11.82
2023-04-01T16:10:47.155Z,11.78
2023-04-01T16:13:30.584Z,11.73
2023-04-01T16:16:08.537Z,11.67
2023-04-01T16:19:07.615Z,11.58
2023-04-01T16:21:44.128Z,11.46
2023-04-01T16:24:22.493Z,11.37
2023-04-01T16:26:57.141Z,11.27
2023-04-01T16:29:35.145Z,11.24
2023-04-01T16:32:20.227Z,11.25
2023-04-01T16:35:00.523Z,11.22
2023-04-01T16:37:38.599Z,11.21
2023-04-01T16:40:18.827Z,11.18
2023-04-01T16:42:53.641Z,11.13
2023-04-01T16:45:32.840Z,11.09
2023-04-01T16:48:09.466Z,11.04
2023-04-01T16:50:50.970Z,11.00
2023-04-01T16:53:21.936Z,10.99
2023-04-01T16:55:54.501Z,11.00
2023-04-01T16:58:29.645Z,11.00
2023-04-01T17:01:05.113Z,11.00
2023-04-01T17:03:38.946Z,10.99
2023-04-01T17:06:21.800Z,10.94
2023-04-01T17:09:08.219Z,10.91
2023-04-01T17:11:42.855Z,10.87
2023-04-01T17:14:21.066Z,10.89
2023-04-01T17:17:03.839Z,10.86
2023-04-01T17:19:51.402Z,10.90
2023-04-01T17:22:33.666Z,10.89
2023-04-01T17:25:15.594Z,10.84
2023-04-01T17:27:53.047Z,10.81
2023-04-01T17:30:28.616Z,10.81
2023-04-01T17:33:13.004Z,10.81
2023-04-01T17:35:47.076Z,10.73
2023-04-01T17:38:25.852Z,10.63
2023-04-01T17:41:04.530Z,10.62
2023-04-01T17:43:41.604Z,10.61
2023-04-01T17:46:24.867Z,10.60
2023-04-01T17:49:03.597Z,10.53
2023-04-01T17:51:39.025Z,10.47
2023-04-01T17:54:21.222Z,10.48
2023-04-01T17:57:06.368Z,10.46
2023-04-01T17:59:40.411Z,10.40
2023-04-01T18:02:25.528Z,10.44
2023-04-01T18:05:23.908Z,10.41
2023-04-01T18:08:18.336Z,10.39
2023-04-01T18:11:06.061Z,10.28
2023-04-01T18:14:15.869Z,10.25
2023-04-01T18:17:01.792Z,10.22
2023-04-01T18:19:39.649Z,10.22
2023-04-01T18:22:21.074Z,10.18
2023-04-01T18:25:00.896Z,10.17
2023-04-01T18:27:34.099Z,10.19
2023-04-01T18:30:09.619Z,10.14
2023-04-01T18:32:46.073Z,10.14
2023-04-01T18:35:26.897Z,10.13
2023-04-01T18:38:02.824Z,10.13
2023-04-01T18:40:37.260Z,10.15
2023-04-01T18:43:15.038Z,10.14
2023-04-01T18:45:49.004Z,10.16
2023-04-01T18:48:36.054Z,10.18
2023-04-01T18:51:12.790Z,10.17
2023-04-01T18:53:47.880Z,10.20
2023-04-01T18:56:26.422Z,10.22
2023-04-01T18:59:01.598Z,10.25
2023-04-01T19:01:39.066Z,10.27
2023-04-01T19:04:18.831Z,10.34
2023-04-01T19:06:50.733Z,10.31
2023-04-01T19:09:23.738Z,10.34
2023-04-01T19:12:05.114Z,10.32
2023-04-01T19:14:55.295Z,10.36
2023-04-01T19:17:35.401Z,10.35
2023-04-01T19:20:17.062Z,10.36
2023-04-01T19:22:51.664Z,10.32
2023-04-01T19:25:40.293Z,10.36
2023-04-01T19:28:25.056Z,10.31
2023-04-01T19:30:58.619Z,10.32
2023-04-01T19:33:43.097Z,10.31
2023-04-01T19:36:17.551Z,10.35
2023-04-01T19:38:55.618Z,10.35
2023-04-01T19:41:38.543Z,10.35
2023-04-01T19:44:24.393Z,10.29
2023-04-01T19:46:57.836Z,10.34
2023-04-01T19:49:48.503Z,10.36
2023-04-01T19:52:23.977Z,10.36
2023-04-01T19:55:00.044Z,10.37
2023-04-01T19:57:41.494Z,10.38
2023-04-01T20:00:23.726Z,10.36
2023-04-01T20:03:01.279Z,10.36
2023-04-01T20:05:43.850Z,10.32
2023-04-01T20:08:19.183Z,10.34
2023-04-01T20:10:58.582Z,10.33
2023-04-01T20:13:37.233Z,10.30
2023-04-01T20:16:08.354Z,10.29
2023-04-01T20:18:43.790Z,10.26
2023-04-01T20:21:26.848Z,10.29
2023-04-01T20:23:59.076Z,10.28
2023-04-01T20:26:32.649Z,10.30
2023-04-01T20:29:17.548Z,10.30
2023-04-01T20:31:50.863Z,10.32
2023-04-01T20:34:34.739Z,10.29
2023-04-01T20:37:15.529Z,10.28
2023-04-01T20:40:21.197Z,10.24
2023-04-01T20:43:10.386Z,10.21
2023-04-01T20:45:48.426Z,10.21
2023-04-01T20:48:43.812Z,10.24
2023-04-01T20:51:17.447Z,10.21
2023-04-01T20:53:52.406Z,10.22
2023-04-01T20:56:33.051Z,10.18
2023-04-01T20:59:13.832Z,10.21
2023-04-01T21:01:53.640Z,10.20
2023-04-01T21:04:32.901Z,10.17
2023-04-01T21:07:22.545Z,10.20
2023-04-01T21:10:14.586Z,10.17
2023-04-01T21:12:53.254Z,10.15
2023-04-01T21:15:42.193Z,10.13
2023-04-01T21:18:37.573Z,10.11
2023-04-01T21:21:22.990Z,10.13
2023-04-01T21:24:06.841Z,10.16
2023-04-01T21:26:49.722Z,10.18
2023-04-01T21:29:35.717Z,10.17
2023-04-01T21:32:26.698Z,10.16
2023-04-01T21:35:02.605Z,10.18
2023-04-01T21:37:52.253Z,10.17
2023-04-01T21:40:43.372Z,10.17
2023-04-01T21:43:29.287Z,10.16
2023-04-01T21:46:20.753Z,10.18
2023-04-01T21:49:22.095Z,10.17
2023-04-01T21:52:32.530Z,10.14
2023-04-01T21:55:45.100Z,10.12
2023-04-01T21:58:49.725Z,10.15
2023-04-01T22:01:43.550Z,10.17
2023-04-01T22:04:34.419Z,10.17
2023-04-01T22:07:10.264Z,10.19
2023-04-01T22:09:44.048Z,10.20
2023-04-01T22:12:19.510Z,10.17
2023-04-01T22:14:57.763Z,10.18
2023-04-01T22:17:33.703Z,10.19
2023-04-01T22:20:13.753Z,10.25
2023-04-01T22:22:57.453Z,10.27
2023-04-01T22:25:32.177Z,10.28
2023-04-01T22:28:06.042Z,10.23
2023-04-01T22:30:37.038Z,10.25
2023-04-01T22:33:13.402Z,10.26
2023-04-01T22:35:50.111Z,10.22
2023-04-01T22:38:33.050Z,10.24
2023-04-01T22:41:07.534Z,10.26
2023-04-01T22:43:40.354Z,10.23
2023-04-01T22:46:31.453Z,10.21
2023-04-01T22:49:10.711Z,10.22
2023-04-01T22:51:48.337Z,10.20
2023-04-01T22:54:26.644Z,10.18
2023-04-01T22:56:59.854Z,10.17
2023-04-01T22:59:37.258Z,10.19
2023-04-01T23:02:10.957Z,10.21
2023-04-01T23:04:44.627Z,10.20
2023-04-01T23:07:32.885Z,10.21
2023-04-01T23:10:04.755Z,10.21
2023-04-01T23:12:35.733Z,10.21
2023-04-01T23:15:04.745Z,10.19
2023-04-01T23:17:48.517Z,10.19
2023-04-01T23:20:29.764Z,10.19
2023-04-01T23:23:09.570Z,10.19
2023-04-01T23:25:50.636Z,10.22
2023-04-01T23:28:34.630Z,10.22
2023-04-01T23:31:02.880Z,10.20
2023-04-01T23:33:32.327Z,10.22
2023-04-01T23:36:07.047Z,10.24
2023-04-01T23:38:38.042Z,10.22
2023-04-01T23:41:08.803Z,10.21
2023-04-01T23:43:43.591Z,10.19
2023-04-01T23:46:11.827Z,10.19
2023-04-01T23:48:42.567Z,10.12
2023-04-01T23:51:20.107Z,10.07
2023-04-01T23:53:50.129Z,10.06
2023-04-01T23:56:22.080Z,10.05
2023-04-01T23:58:56.484Z,9.99
